Normal, IL

5:39 AM CDT on September 04, 2015 (GMT -0500)
Across from IWU | | Change Station
CLOSE
Current Station
Personal Weather Station
Location: Bloomington, IL
Elevation: 810 ft
Nearby Weather Stations

Elev 810 ft 40.49 °N, 88.99 °W | Updated 27 seconds ago

Clear
Clear
74.1 °F
Feels Like 74 °F
N
0.0
Wind Variable Wind from SW
Gusts 0.0 mph

Today
High -- | Low -- °F
--% Chance of Precip.
Yesterday
High -- | Low -- °F
Precip. -- in
6:25 AM 7:23 PM
Waning Gibbous, 61% visible
Pressure 29.95 in
Visibility 10.0 miles
Clouds Clear
Heat Index 74 °F
Dew Point 68 °F
Humidity 82%
Rainfall 0.00 in
Snow Depth Not available.
UV 0 out of 12
Pollen 10.20 out of 12
Air Quality Not available.
Flu Activity Not available.
METAR KBMI 040956Z AUTO 23005KT 10SM CLR 22/19 A2999 RMK AO2 T02160194 SLP140
Pressure 29.95 in
Visibility 10.0 miles
Clouds Clear
Heat Index 74 °F
Dew Point 68 °F
Humidity 82%
Rainfall 0.00 in
Snow Depth Not available.
UV 0 out of 12
Pollen 10.20 out of 12
Air Quality Not available.
Flu Activity Not available.
METAR KBMI 040956Z AUTO 23005KT 10SM CLR 22/19 A2999 RMK AO2 T02160194 SLP140

10-Day Weather Forecast

×

Almanac

Astronomy

Sep. 04, 2015 Rise Set
Actual Time
Civil Twilight
Nautical Twilight
Astronomical Twilight
Moon
Length of Visible Light
Length of Day
Tomorrow will be .
, % of the Moon is Illuminated

Today's Extremes

State Highs State Lows

Community

WunderPhotos

Upload Photos

1,852,146 photos uploaded!

WunderBlogs® & News

Nearby

Air Quality

  Air Quality AQ Index Pollutant
Not available.

Snow Depth

Station Depth Elevation

Earthquake Activity

City Distance Mag. Time & Date
Minimum magnitude displayed is 2.5.

Coastal Water Temperatures

Place Temperature

Stations

Nearby Weather Stations

Station Location Temp. Windchill Dew Point Humidity Wind Precip. Elev Updated Type